createdAt,value
2018-12-06T00:00:41.578Z,2.52
2018-12-06T00:01:47.295Z,2.49
2018-12-06T00:02:52.925Z,2.45
2018-12-06T00:03:58.590Z,2.44
2018-12-06T00:05:03.905Z,2.38
2018-12-06T00:06:10.394Z,2.42
2018-12-06T00:07:15.987Z,2.44
2018-12-06T00:08:21.254Z,2.42
2018-12-06T00:09:27.786Z,2.40
2018-12-06T00:10:33.385Z,2.39
2018-12-06T00:11:39.011Z,2.38
2018-12-06T00:12:44.680Z,2.39
2018-12-06T00:13:50.370Z,2.41
2018-12-06T00:14:55.270Z,2.45
2018-12-06T00:16:00.922Z,2.42
2018-12-06T00:17:06.537Z,2.40
2018-12-06T00:18:12.247Z,2.47
2018-12-06T00:19:18.004Z,2.42
2018-12-06T00:20:23.644Z,2.33
2018-12-06T00:21:29.260Z,2.27
2018-12-06T00:22:34.942Z,2.24
2018-12-06T00:23:40.617Z,2.27
2018-12-06T00:24:46.291Z,2.29
2018-12-06T00:25:51.989Z,2.41
2018-12-06T00:26:57.385Z,2.70
2018-12-06T00:28:03.043Z,2.65
2018-12-06T00:29:08.713Z,2.49
2018-12-06T00:30:34.381Z,2.40
2018-12-06T00:31:40.025Z,2.32
2018-12-06T00:32:45.629Z,2.27
2018-12-06T00:33:51.347Z,2.25
2018-12-06T00:34:57.016Z,2.25
2018-12-06T00:36:02.668Z,2.22
2018-12-06T00:37:08.309Z,2.21
2018-12-06T00:38:13.974Z,2.22
2018-12-06T00:39:19.648Z,2.23
2018-12-06T00:40:24.587Z,2.24
2018-12-06T00:41:30.219Z,2.22
2018-12-06T00:42:35.857Z,2.22
2018-12-06T00:43:41.516Z,2.23
2018-12-06T00:44:47.208Z,2.27
2018-12-06T00:45:52.867Z,2.25
2018-12-06T00:46:58.524Z,2.25
2018-12-06T00:48:04.160Z,2.26
2018-12-06T00:49:09.803Z,2.35
2018-12-06T00:50:15.439Z,2.32
2018-12-06T00:51:21.075Z,2.28
2018-12-06T00:52:26.721Z,2.27
2018-12-06T00:53:32.325Z,2.27
2018-12-06T00:54:38.002Z,2.23
2018-12-06T00:55:43.664Z,2.32
2018-12-06T00:56:49.304Z,2.33
2018-12-06T00:57:54.932Z,2.35
2018-12-06T00:59:00.572Z,2.33
2018-12-06T01:00:05.589Z,2.28
2018-12-06T01:01:11.204Z,2.29
2018-12-06T01:02:16.877Z,2.33
2018-12-06T01:03:22.545Z,2.39
2018-12-06T01:04:28.227Z,2.41
2018-12-06T01:05:33.497Z,2.37
2018-12-06T01:06:39.147Z,2.37
2018-12-06T01:07:44.940Z,2.39
2018-12-06T01:08:50.601Z,2.38
2018-12-06T01:09:56.273Z,2.38
2018-12-06T01:11:01.933Z,2.38
2018-12-06T01:12:07.189Z,2.37
2018-12-06T01:13:12.776Z,2.39
2018-12-06T01:14:18.198Z,2.42
2018-12-06T01:15:23.861Z,2.40
2018-12-06T01:16:29.488Z,2.39
2018-12-06T01:17:35.132Z,2.40
2018-12-06T01:18:40.800Z,2.43
2018-12-06T01:19:46.438Z,2.44
2018-12-06T01:20:52.078Z,2.49
2018-12-06T01:21:57.362Z,2.45
2018-12-06T01:23:03.011Z,2.40
2018-12-06T01:24:08.692Z,2.38
2018-12-06T01:25:13.950Z,2.39
2018-12-06T01:26:19.599Z,2.43
2018-12-06T01:27:25.267Z,2.45
2018-12-06T01:28:30.896Z,2.50
2018-12-06T01:29:36.277Z,2.51
2018-12-06T01:30:41.894Z,2.65
2018-12-06T01:31:47.182Z,2.60
2018-12-06T01:32:52.813Z,2.60
2018-12-06T01:33:58.453Z,2.70
2018-12-06T01:35:03.714Z,2.66
2018-12-06T01:36:09.331Z,2.61
2018-12-06T01:37:14.958Z,2.59
2018-12-06T01:38:20.608Z,2.61
2018-12-06T01:39:26.257Z,2.60
2018-12-06T01:40:31.874Z,2.59
2018-12-06T01:41:37.619Z,2.72
2018-12-06T01:42:43.234Z,2.69
2018-12-06T01:43:48.940Z,2.79
2018-12-06T01:44:54.580Z,2.74
2018-12-06T01:46:00.194Z,2.74
2018-12-06T01:47:05.684Z,2.76
2018-12-06T01:48:11.064Z,2.75
2018-12-06T01:49:16.774Z,2.76
2018-12-06T01:50:22.390Z,2.79
2018-12-06T01:51:28.043Z,2.85
2018-12-06T01:52:33.698Z,2.98
2018-12-06T01:53:39.349Z,3.08
2018-12-06T01:54:44.992Z,3.02
2018-12-06T01:55:50.658Z,2.96
2018-12-06T01:56:56.260Z,3.10
2018-12-06T01:58:01.911Z,3.01
2018-12-06T01:59:07.545Z,2.93
2018-12-06T02:00:12.243Z,2.97
2018-12-06T02:01:17.596Z,2.94
2018-12-06T02:02:22.121Z,2.88
2018-12-06T02:03:26.713Z,2.98
2018-12-06T02:04:31.337Z,3.06
2018-12-06T02:05:36.941Z,3.03
2018-12-06T02:06:42.573Z,3.06
2018-12-06T02:07:48.232Z,3.10
2018-12-06T02:08:53.901Z,3.07
2018-12-06T02:09:59.538Z,2.99
2018-12-06T02:11:05.142Z,2.97
2018-12-06T02:12:10.753Z,2.98
2018-12-06T02:13:16.390Z,2.89
2018-12-06T02:14:21.988Z,2.90
2018-12-06T02:15:27.668Z,2.89
2018-12-06T02:16:32.933Z,2.90
2018-12-06T02:17:38.539Z,2.93
2018-12-06T02:18:44.206Z,3.15
2018-12-06T02:19:49.897Z,3.07
2018-12-06T02:20:55.561Z,3.00
2018-12-06T02:22:01.245Z,3.00
2018-12-06T02:23:06.848Z,3.12
2018-12-06T02:24:12.477Z,3.12
2018-12-06T02:25:18.181Z,3.33
2018-12-06T02:26:23.465Z,3.35
2018-12-06T02:27:29.154Z,3.37
2018-12-06T02:28:34.775Z,3.34
2018-12-06T02:29:45.881Z,3.26
2018-12-06T02:30:51.539Z,3.17
2018-12-06T02:31:57.174Z,3.16
2018-12-06T02:33:02.838Z,3.24
2018-12-06T02:34:08.506Z,3.18
2018-12-06T02:35:14.148Z,3.16
2018-12-06T02:36:19.807Z,3.18
2018-12-06T02:37:25.435Z,3.23
2018-12-06T02:38:30.710Z,3.24
2018-12-06T02:39:36.349Z,3.27
2018-12-06T02:40:42.021Z,3.24
2018-12-06T02:41:47.670Z,3.37
2018-12-06T02:42:53.428Z,3.36
2018-12-06T02:43:59.095Z,3.44
2018-12-06T02:45:04.065Z,3.38
2018-12-06T02:46:09.748Z,3.39
2018-12-06T02:47:15.364Z,3.38
2018-12-06T02:48:20.664Z,3.43
2018-12-06T02:49:26.327Z,3.41
2018-12-06T02:50:31.978Z,3.31
2018-12-06T02:51:37.608Z,3.28
2018-12-06T02:52:43.867Z,3.34
2018-12-06T02:53:50.462Z,3.42
2018-12-06T02:54:57.266Z,3.32
2018-12-06T02:56:02.915Z,3.28
2018-12-06T02:57:08.563Z,3.46
2018-12-06T02:58:14.162Z,3.45
2018-12-06T02:59:19.819Z,3.25
2018-12-06T03:00:25.474Z,3.20
2018-12-06T03:01:31.132Z,3.12
2018-12-06T03:02:36.813Z,3.04
2018-12-06T03:03:42.497Z,3.15
2018-12-06T03:04:48.142Z,3.14
2018-12-06T03:05:53.797Z,3.13
2018-12-06T03:06:59.411Z,3.08
2018-12-06T03:08:05.024Z,2.97
2018-12-06T03:09:10.652Z,2.96
2018-12-06T03:10:16.845Z,2.96
2018-12-06T03:11:22.179Z,2.96
2018-12-06T03:12:27.824Z,2.92
2018-12-06T03:13:33.479Z,2.89
2018-12-06T03:14:39.146Z,2.82
2018-12-06T03:15:44.796Z,2.76
2018-12-06T03:16:50.468Z,2.77
2018-12-06T03:17:56.157Z,2.87
2018-12-06T03:19:01.814Z,2.82
2018-12-06T03:20:06.767Z,2.74
2018-12-06T03:21:12.436Z,2.83
2018-12-06T03:22:18.132Z,2.79
2018-12-06T03:23:23.799Z,2.77
2018-12-06T03:24:29.469Z,2.75
2018-12-06T03:25:34.888Z,2.68
2018-12-06T03:26:40.221Z,2.67
2018-12-06T03:27:45.877Z,2.70
2018-12-06T03:28:51.613Z,2.67
2018-12-06T03:29:57.300Z,2.66
2018-12-06T03:31:02.998Z,2.64
2018-12-06T03:32:08.661Z,2.63
2018-12-06T03:33:14.251Z,2.61
2018-12-06T03:34:19.892Z,2.65
2018-12-06T03:35:25.559Z,2.70
2018-12-06T03:36:31.214Z,2.70
2018-12-06T03:37:36.615Z,2.66
2018-12-06T03:38:42.233Z,2.64
2018-12-06T03:39:47.881Z,2.61
2018-12-06T03:40:53.535Z,2.59
2018-12-06T03:41:59.164Z,2.59
2018-12-06T03:43:04.849Z,2.59
2018-12-06T03:44:10.463Z,2.58
2018-12-06T03:45:16.155Z,2.59
2018-12-06T03:46:22.211Z,2.56
2018-12-06T03:47:27.511Z,2.61
2018-12-06T03:48:33.170Z,2.60
2018-12-06T03:49:38.839Z,2.68
2018-12-06T03:50:44.507Z,2.73
2018-12-06T03:51:50.156Z,2.66
2018-12-06T03:52:55.777Z,2.65
2018-12-06T03:54:01.433Z,2.59
2018-12-06T03:55:06.405Z,2.55
2018-12-06T03:56:12.053Z,2.58
2018-12-06T03:57:17.660Z,2.62
2018-12-06T03:58:23.292Z,2.61
2018-12-06T03:59:28.953Z,2.62
2018-12-06T04:00:34.580Z,2.62
2018-12-06T04:01:40.251Z,2.58
2018-12-06T04:02:45.567Z,2.56
2018-12-06T04:03:50.910Z,2.54
2018-12-06T04:04:56.596Z,2.50
2018-12-06T04:06:02.255Z,2.53
2018-12-06T04:07:07.893Z,2.57
2018-12-06T04:08:13.494Z,2.58
2018-12-06T04:09:19.223Z,2.56
2018-12-06T04:10:24.917Z,2.53
2018-12-06T04:11:30.623Z,2.54
2018-12-06T04:12:36.277Z,2.53
2018-12-06T04:13:41.974Z,2.60
2018-12-06T04:14:47.630Z,2.57
2018-12-06T04:15:53.315Z,2.57
2018-12-06T04:16:59.033Z,2.56
2018-12-06T04:18:04.701Z,2.57
2018-12-06T04:19:10.367Z,2.59
2018-12-06T04:20:16.049Z,2.60
2018-12-06T04:21:21.490Z,2.61
2018-12-06T04:22:27.093Z,2.61
2018-12-06T04:23:32.886Z,2.61
2018-12-06T04:24:38.053Z,2.66
2018-12-06T04:25:43.668Z,2.74
2018-12-06T04:26:49.315Z,2.74
2018-12-06T04:27:54.965Z,2.73
2018-12-06T04:29:01.239Z,2.70
2018-12-06T04:30:06.756Z,2.70
2018-12-06T04:31:12.385Z,2.66
2018-12-06T04:32:18.024Z,2.69
2018-12-06T04:33:23.682Z,2.66
2018-12-06T04:34:29.346Z,2.65
2018-12-06T04:35:34.989Z,2.61
2018-12-06T04:36:40.631Z,2.54
2018-12-06T04:37:46.294Z,2.53
2018-12-06T04:38:52.857Z,2.63
2018-12-06T04:39:58.530Z,2.62
2018-12-06T04:41:04.177Z,2.68
2018-12-06T04:42:09.878Z,2.65
2018-12-06T04:43:15.506Z,2.64
2018-12-06T04:44:21.126Z,2.56
2018-12-06T04:45:26.746Z,2.51
2018-12-06T04:46:32.436Z,2.45
2018-12-06T04:47:38.088Z,2.43
2018-12-06T04:48:43.761Z,2.40
2018-12-06T04:49:49.392Z,2.32
2018-12-06T04:50:55.454Z,2.39
2018-12-06T04:52:01.130Z,2.34
2018-12-06T04:53:06.725Z,2.25
2018-12-06T04:54:12.370Z,2.22
2018-12-06T04:55:18.030Z,2.24
2018-12-06T04:56:23.688Z,2.25
2018-12-06T04:57:29.351Z,2.27
2018-12-06T04:58:34.989Z,2.26
2018-12-06T04:59:40.634Z,2.25
2018-12-06T05:00:46.293Z,2.22
2018-12-06T05:01:51.994Z,2.20
2018-12-06T05:02:57.728Z,2.12
2018-12-06T05:04:03.350Z,2.12
2018-12-06T05:05:08.336Z,2.05
2018-12-06T05:06:13.963Z,1.99
2018-12-06T05:07:19.617Z,2.01
2018-12-06T05:08:25.279Z,2.08
2018-12-06T05:09:30.929Z,2.17
2018-12-06T05:10:36.553Z,2.14
2018-12-06T05:11:42.240Z,2.09
2018-12-06T05:12:47.900Z,2.09
2018-12-06T05:13:53.584Z,2.21
2018-12-06T05:14:59.250Z,2.27
2018-12-06T05:16:04.902Z,2.36
2018-12-06T05:17:10.609Z,2.49
2018-12-06T05:18:16.315Z,2.42
2018-12-06T05:19:21.969Z,2.39
2018-12-06T05:20:27.684Z,2.38
2018-12-06T05:21:33.392Z,2.30
2018-12-06T05:22:39.076Z,2.27
2018-12-06T05:23:44.690Z,2.36
2018-12-06T05:24:50.349Z,2.37
2018-12-06T05:25:55.986Z,2.41
2018-12-06T05:27:01.370Z,2.33
2018-12-06T05:28:06.993Z,2.32
2018-12-06T05:29:12.656Z,2.25
2018-12-06T05:30:18.296Z,2.22
2018-12-06T05:31:24.085Z,2.34
2018-12-06T05:32:29.782Z,2.31
2018-12-06T05:33:35.424Z,2.36
2018-12-06T05:34:41.696Z,2.40
2018-12-06T05:35:47.363Z,2.35
2018-12-06T05:36:53.029Z,2.36
2018-12-06T05:37:58.657Z,2.56
2018-12-06T05:39:03.416Z,2.75
2018-12-06T05:40:09.097Z,2.81
2018-12-06T05:41:14.726Z,2.77
2018-12-06T05:42:20.379Z,2.78
2018-12-06T05:43:26.043Z,2.67
2018-12-06T05:44:31.683Z,2.56
2018-12-06T05:45:37.322Z,2.56
2018-12-06T05:46:43.007Z,2.49
2018-12-06T05:47:48.690Z,2.44
2018-12-06T05:48:54.363Z,2.44
2018-12-06T05:50:00.069Z,2.46
2018-12-06T05:51:05.408Z,2.43
2018-12-06T05:52:11.132Z,2.40
2018-12-06T05:53:16.569Z,2.40
2018-12-06T05:54:22.290Z,2.39
2018-12-06T05:55:28.002Z,2.40
2018-12-06T05:56:33.621Z,2.41
2018-12-06T05:57:39.346Z,2.40
2018-12-06T05:58:45.020Z,2.40
2018-12-06T05:59:50.640Z,2.39
2018-12-06T06:00:56.274Z,2.39
2018-12-06T06:02:01.934Z,2.47
2018-12-06T06:03:07.618Z,2.51
2018-12-06T06:04:13.228Z,2.52
2018-12-06T06:05:18.851Z,2.51
2018-12-06T06:06:24.573Z,2.56
2018-12-06T06:07:30.198Z,2.69
2018-12-06T06:08:35.849Z,2.70
2018-12-06T06:09:41.510Z,2.71
2018-12-06T06:10:47.791Z,2.72
2018-12-06T06:11:53.969Z,2.71
2018-12-06T06:12:59.960Z,2.86
2018-12-06T06:14:05.593Z,2.90
2018-12-06T06:15:11.248Z,2.94
2018-12-06T06:16:16.908Z,2.93
2018-12-06T06:17:22.544Z,2.86
2018-12-06T06:18:28.205Z,2.90
2018-12-06T06:19:33.839Z,2.86
2018-12-06T06:20:39.548Z,2.92
2018-12-06T06:21:45.175Z,2.97
2018-12-06T06:22:50.828Z,2.99
2018-12-06T06:23:56.428Z,3.06
2018-12-06T06:25:02.089Z,2.99
2018-12-06T06:26:07.779Z,3.05
2018-12-06T06:27:13.411Z,3.13
2018-12-06T06:28:19.077Z,3.30
2018-12-06T06:29:24.768Z,3.44
2018-12-06T06:30:30.372Z,3.47
2018-12-06T06:31:36.009Z,3.53
2018-12-06T06:32:41.703Z,3.55
2018-12-06T06:33:47.315Z,3.46
2018-12-06T06:34:52.923Z,3.44
2018-12-06T06:35:58.569Z,3.58
2018-12-06T06:37:03.890Z,3.81
2018-12-06T06:38:09.665Z,3.90
2018-12-06T06:39:15.318Z,4.09
2018-12-06T06:40:20.633Z,3.86
2018-12-06T06:41:26.320Z,3.91
2018-12-06T06:42:31.986Z,3.80
2018-12-06T06:43:37.634Z,3.83
2018-12-06T06:44:44.715Z,3.79
2018-12-06T06:45:51.467Z,3.94
2018-12-06T06:46:57.116Z,3.99
2018-12-06T06:48:02.786Z,4.09
2018-12-06T06:49:13.782Z,4.21
2018-12-06T06:50:14.140Z,4.07
2018-12-06T06:51:19.819Z,3.99
2018-12-06T06:52:25.483Z,4.05
2018-12-06T06:53:31.121Z,3.92
2018-12-06T06:54:36.780Z,3.80
2018-12-06T06:55:42.394Z,3.87
2018-12-06T06:56:48.092Z,4.11
2018-12-06T06:57:53.780Z,4.25
2018-12-06T06:58:59.446Z,4.09
2018-12-06T07:00:04.626Z,4.15
2018-12-06T07:01:10.784Z,4.29
2018-12-06T07:02:16.965Z,4.26
2018-12-06T07:03:22.644Z,4.17
2018-12-06T07:04:28.368Z,4.25
2018-12-06T07:05:34.029Z,4.23
2018-12-06T07:06:39.675Z,4.40
2018-12-06T07:07:45.373Z,4.47
2018-12-06T07:08:50.781Z,4.46
2018-12-06T07:09:56.465Z,4.56
2018-12-06T07:11:02.180Z,4.49
2018-12-06T07:12:07.819Z,4.50
2018-12-06T07:13:13.472Z,4.41
2018-12-06T07:14:19.131Z,4.22
2018-12-06T07:15:24.769Z,4.34
2018-12-06T07:16:30.385Z,4.37
2018-12-06T07:17:36.089Z,4.51
2018-12-06T07:18:41.761Z,4.48
2018-12-06T07:19:47.408Z,4.32
2018-12-06T07:20:53.558Z,4.46
2018-12-06T07:22:00.559Z,4.54
2018-12-06T07:23:06.679Z,4.58
2018-12-06T07:24:12.293Z,4.39
2018-12-06T07:25:17.583Z,4.40
2018-12-06T07:26:23.206Z,4.57
2018-12-06T07:27:28.911Z,4.63
2018-12-06T07:28:34.574Z,4.47
2018-12-06T07:29:40.173Z,4.35
2018-12-06T07:30:45.811Z,4.49
2018-12-06T07:31:51.454Z,4.61
2018-12-06T07:32:57.129Z,4.54
2018-12-06T07:34:02.835Z,4.57
2018-12-06T07:35:08.481Z,4.49
2018-12-06T07:36:14.135Z,4.69
2018-12-06T07:37:19.749Z,4.66
2018-12-06T07:38:25.433Z,4.60
2018-12-06T07:39:31.077Z,4.49
2018-12-06T07:40:36.766Z,4.69
2018-12-06T07:41:42.462Z,4.75
2018-12-06T07:42:48.107Z,4.74
2018-12-06T07:43:53.775Z,4.57
2018-12-06T07:44:59.423Z,4.56
2018-12-06T07:46:07.892Z,4.62
2018-12-06T07:47:13.516Z,4.53
2018-12-06T07:48:19.169Z,4.61
2018-12-06T07:49:24.780Z,4.71
2018-12-06T07:50:30.404Z,4.90
2018-12-06T07:51:36.103Z,5.05
2018-12-06T07:52:41.835Z,5.16
2018-12-06T07:53:47.500Z,5.02
2018-12-06T07:54:53.132Z,5.12
2018-12-06T07:55:58.782Z,5.15
2018-12-06T07:57:04.382Z,5.13
2018-12-06T07:58:10.057Z,5.11
2018-12-06T07:59:15.658Z,5.06
2018-12-06T08:00:21.324Z,5.13
2018-12-06T08:01:26.952Z,5.13
2018-12-06T08:02:32.581Z,5.05
2018-12-06T08:03:38.263Z,5.14
2018-12-06T08:04:43.918Z,5.13
2018-12-06T08:05:49.603Z,5.04
2018-12-06T08:06:55.248Z,5.01
2018-12-06T08:08:00.922Z,5.01
2018-12-06T08:09:05.927Z,5.10
2018-12-06T08:10:11.256Z,5.21
2018-12-06T08:11:16.871Z,5.16
2018-12-06T08:12:22.549Z,5.21
2018-12-06T08:13:28.238Z,5.16
2018-12-06T08:14:33.892Z,5.09
2018-12-06T08:15:39.580Z,5.16
2018-12-06T08:16:45.229Z,5.27
2018-12-06T08:17:50.920Z,5.19
2018-12-06T08:18:56.594Z,5.19
2018-12-06T08:20:02.240Z,5.14
2018-12-06T08:21:07.897Z,5.26
2018-12-06T08:22:13.597Z,5.24
2018-12-06T08:23:19.296Z,5.28
2018-12-06T08:24:24.896Z,5.19
2018-12-06T08:25:30.585Z,5.09
2018-12-06T08:26:38.213Z,5.30
2018-12-06T08:27:44.565Z,5.43
2018-12-06T08:28:51.823Z,5.33
2018-12-06T08:29:58.637Z,5.49
2018-12-06T08:31:05.988Z,5.64
2018-12-06T08:32:12.933Z,5.64
2018-12-06T08:33:19.361Z,5.55
2018-12-06T08:34:25.488Z,5.48
2018-12-06T08:35:32.151Z,5.44
2018-12-06T08:36:39.290Z,5.38
2018-12-06T08:37:46.097Z,5.39
2018-12-06T08:38:52.931Z,5.57
2018-12-06T08:39:59.320Z,5.77
2018-12-06T08:41:06.628Z,5.64
2018-12-06T08:42:14.065Z,5.53
2018-12-06T08:43:20.321Z,5.66
2018-12-06T08:44:27.267Z,5.82
2018-12-06T08:45:33.986Z,5.68
2018-12-06T08:46:40.415Z,5.68
2018-12-06T08:47:47.755Z,5.85
2018-12-06T08:49:02.830Z,6.02
2018-12-06T08:50:02.648Z,6.11
2018-12-06T08:51:10.509Z,6.14
2018-12-06T08:52:17.695Z,6.13
2018-12-06T08:53:24.320Z,6.04
2018-12-06T08:54:29.973Z,6.12
2018-12-06T08:55:37.452Z,6.04
2018-12-06T08:56:45.088Z,6.15
2018-12-06T08:57:53.409Z,6.25
2018-12-06T08:59:00.273Z,6.31
2018-12-06T09:00:05.971Z,6.10
2018-12-06T09:01:12.675Z,6.24
2018-12-06T09:02:19.527Z,6.38
2018-12-06T09:03:27.151Z,6.24
2018-12-06T09:04:33.420Z,6.29
2018-12-06T09:05:39.622Z,6.31
2018-12-06T09:06:45.924Z,6.31
2018-12-06T09:07:52.675Z,6.34
2018-12-06T09:08:59.763Z,6.41
2018-12-06T09:10:07.140Z,6.47
2018-12-06T09:11:15.181Z,6.45
2018-12-06T09:12:21.844Z,6.49
2018-12-06T09:13:29.854Z,6.33
2018-12-06T09:14:36.182Z,6.44
2018-12-06T09:15:42.530Z,6.51
2018-12-06T09:16:49.319Z,6.69
2018-12-06T09:17:57.260Z,6.67
2018-12-06T09:19:04.224Z,6.84
2018-12-06T09:20:11.409Z,6.97
2018-12-06T09:21:19.310Z,6.95
2018-12-06T09:22:26.585Z,7.14
2018-12-06T09:23:34.026Z,7.15
2018-12-06T09:24:40.283Z,7.19
2018-12-06T09:25:47.514Z,7.29
2018-12-06T09:26:58.835Z,7.29
2018-12-06T09:28:02.835Z,7.38
2018-12-06T09:29:11.449Z,7.45
2018-12-06T09:30:18.791Z,7.51
2018-12-06T09:31:25.748Z,7.55
2018-12-06T09:32:35.678Z,7.51
2018-12-06T09:34:04.305Z,7.50
2018-12-06T09:35:11.113Z,7.44
2018-12-06T09:36:17.291Z,7.43
2018-12-06T09:37:24.302Z,7.32
2018-12-06T09:38:32.215Z,7.28
2018-12-06T09:39:39.272Z,7.36
2018-12-06T09:40:46.596Z,7.32
2018-12-06T09:41:53.914Z,7.34
2018-12-06T09:43:00.826Z,7.42
2018-12-06T09:44:07.922Z,7.43
2018-12-06T09:45:14.776Z,7.45
2018-12-06T09:46:21.773Z,7.33
2018-12-06T09:47:28.622Z,7.34
2018-12-06T09:48:34.966Z,7.28
2018-12-06T09:49:41.116Z,7.38
2018-12-06T09:50:47.392Z,7.32
2018-12-06T09:51:54.544Z,7.24
2018-12-06T09:53:01.717Z,7.20
2018-12-06T09:54:07.876Z,7.30
2018-12-06T09:55:15.106Z,7.35
2018-12-06T09:56:21.809Z,7.31
2018-12-06T09:57:28.930Z,7.18
2018-12-06T09:58:35.410Z,7.09
2018-12-06T09:59:42.042Z,7.30
2018-12-06T10:00:48.784Z,7.22
2018-12-06T10:01:57.301Z,7.41
2018-12-06T10:03:04.880Z,7.27
2018-12-06T10:04:11.573Z,7.21
2018-12-06T10:05:18.783Z,7.20
2018-12-06T10:06:25.325Z,7.22
2018-12-06T10:07:32.052Z,7.23
2018-12-06T10:08:39.062Z,7.19
2018-12-06T10:09:45.743Z,7.38
2018-12-06T10:10:52.435Z,7.53
2018-12-06T10:11:59.428Z,7.56
2018-12-06T10:13:07.045Z,7.57
2018-12-06T10:14:13.223Z,7.63
2018-12-06T10:15:18.497Z,7.72
2018-12-06T10:16:24.139Z,7.68
2018-12-06T10:17:29.812Z,7.66
2018-12-06T10:18:35.382Z,7.68
2018-12-06T10:19:41.009Z,7.65
2018-12-06T10:20:46.619Z,7.71
2018-12-06T10:21:51.921Z,7.73
2018-12-06T10:22:57.583Z,7.70
2018-12-06T10:24:03.173Z,7.65
2018-12-06T10:25:08.792Z,7.62
2018-12-06T10:26:14.397Z,7.58
2018-12-06T10:27:20.046Z,7.50
2018-12-06T10:28:25.660Z,7.66
2018-12-06T10:29:31.319Z,7.69
2018-12-06T10:30:36.905Z,7.73
2018-12-06T10:31:42.530Z,7.67
2018-12-06T10:32:48.741Z,7.68
2018-12-06T10:33:54.452Z,7.66
2018-12-06T10:35:00.092Z,7.67
2018-12-06T10:36:05.741Z,7.67
2018-12-06T10:37:11.359Z,7.68
2018-12-06T10:38:17.244Z,7.58
2018-12-06T10:39:22.851Z,7.62
2018-12-06T10:40:28.472Z,7.61
2018-12-06T10:41:34.110Z,7.58
2018-12-06T10:42:40.350Z,7.63
2018-12-06T10:43:46.084Z,7.68
2018-12-06T10:44:51.686Z,7.63
2018-12-06T10:45:57.313Z,7.62
2018-12-06T10:47:02.952Z,7.68
2018-12-06T10:48:08.229Z,7.59
2018-12-06T10:49:13.845Z,7.63
2018-12-06T10:50:19.489Z,7.65
2018-12-06T10:51:36.203Z,7.54
2018-12-06T10:52:42.527Z,7.51
2018-12-06T10:53:50.327Z,7.57
2018-12-06T10:54:57.224Z,7.59
2018-12-06T10:56:03.893Z,7.62
2018-12-06T10:57:11.590Z,7.60
2018-12-06T10:58:20.317Z,7.75
2018-12-06T10:59:27.907Z,7.58
2018-12-06T11:00:40.508Z,7.52
2018-12-06T11:01:47.140Z,7.58
2018-12-06T11:02:54.568Z,7.68
2018-12-06T11:04:01.092Z,7.61
2018-12-06T11:05:08.308Z,7.66
2018-12-06T11:06:14.984Z,7.81
2018-12-06T11:07:21.891Z,7.83
2018-12-06T11:08:28.398Z,7.88
2018-12-06T11:09:35.245Z,7.78
2018-12-06T11:10:42.701Z,7.74
2018-12-06T11:11:50.544Z,7.86
2018-12-06T11:12:57.029Z,7.72
2018-12-06T11:14:03.781Z,7.78
2018-12-06T11:15:10.487Z,7.71
2018-12-06T11:16:17.741Z,7.67
2018-12-06T11:17:25.292Z,7.74
2018-12-06T11:18:31.541Z,7.71
2018-12-06T11:19:37.696Z,7.88
2018-12-06T11:20:44.532Z,7.93
2018-12-06T11:21:51.170Z,7.92
2018-12-06T11:22:59.358Z,7.96
2018-12-06T11:24:05.683Z,8.06
2018-12-06T11:25:11.855Z,8.07
2018-12-06T11:26:17.950Z,7.96
2018-12-06T11:27:25.901Z,7.97
2018-12-06T11:28:33.217Z,7.94
2018-12-06T11:29:41.288Z,8.03
2018-12-06T11:30:48.165Z,8.05
2018-12-06T11:31:55.313Z,7.97
2018-12-06T11:33:02.678Z,7.93
2018-12-06T11:34:09.620Z,7.95
2018-12-06T11:35:16.779Z,7.97
2018-12-06T11:36:23.642Z,7.99
2018-12-06T11:37:30.473Z,7.92
2018-12-06T11:38:38.011Z,7.98
2018-12-06T11:39:44.408Z,7.87
2018-12-06T11:40:51.512Z,7.95
2018-12-06T11:41:57.575Z,8.07
2018-12-06T11:43:03.582Z,8.04
2018-12-06T11:44:10.426Z,8.13
2018-12-06T11:45:17.307Z,8.20
2018-12-06T11:46:24.276Z,8.22
2018-12-06T11:47:31.487Z,8.25
2018-12-06T11:48:37.838Z,8.31
2018-12-06T11:49:44.010Z,8.22
2018-12-06T11:50:51.186Z,8.21
2018-12-06T11:51:58.567Z,8.27
2018-12-06T11:53:06.132Z,8.38
2018-12-06T11:54:13.747Z,8.41
2018-12-06T11:55:21.581Z,8.41
2018-12-06T11:56:28.244Z,8.57
2018-12-06T11:57:33.969Z,8.49
2018-12-06T11:58:40.844Z,8.53
2018-12-06T11:59:47.585Z,8.67
2018-12-06T12:00:53.784Z,8.77
2018-12-06T12:02:00.155Z,8.74
2018-12-06T12:03:07.315Z,8.67
2018-12-06T12:04:14.657Z,8.69
2018-12-06T12:05:21.456Z,8.80
2018-12-06T12:06:28.657Z,8.71
2018-12-06T12:07:35.602Z,8.73
2018-12-06T12:08:43.328Z,8.65
2018-12-06T12:09:49.335Z,8.67
2018-12-06T12:10:54.949Z,8.75
2018-12-06T12:12:01.918Z,8.73
2018-12-06T12:13:08.146Z,8.66
2018-12-06T12:14:14.310Z,8.70
2018-12-06T12:15:20.217Z,8.75
2018-12-06T12:16:27.077Z,8.59
2018-12-06T12:17:33.781Z,8.59
2018-12-06T12:18:39.846Z,8.74
2018-12-06T12:19:46.624Z,8.79
2018-12-06T12:20:53.699Z,8.75
2018-12-06T12:22:00.396Z,8.56
2018-12-06T12:23:06.014Z,8.66
2018-12-06T12:24:13.308Z,8.70
2018-12-06T12:25:20.231Z,8.70
2018-12-06T12:26:27.627Z,8.69
2018-12-06T12:27:36.248Z,8.52
2018-12-06T12:28:43.627Z,8.52
2018-12-06T12:29:50.345Z,8.63
2018-12-06T12:30:56.633Z,8.65
2018-12-06T12:32:04.168Z,8.64
2018-12-06T12:33:10.990Z,8.67
2018-12-06T12:34:16.677Z,8.63
2018-12-06T12:35:22.337Z,8.50
2018-12-06T12:36:29.187Z,8.56
2018-12-06T12:37:36.138Z,8.50
2018-12-06T12:38:43.840Z,8.56
2018-12-06T12:39:51.177Z,8.65
2018-12-06T12:40:58.005Z,8.67
2018-12-06T12:42:04.765Z,8.81
2018-12-06T12:43:10.460Z,8.69
2018-12-06T12:44:16.796Z,8.65
2018-12-06T12:45:23.494Z,8.64
2018-12-06T12:46:34.190Z,8.77
2018-12-06T12:47:40.137Z,8.82
2018-12-06T12:48:48.745Z,8.73
2018-12-06T12:49:56.122Z,8.66
2018-12-06T12:51:01.743Z,8.58
2018-12-06T12:52:08.478Z,8.66
2018-12-06T12:53:16.131Z,8.64
2018-12-06T12:54:23.764Z,8.68
2018-12-06T12:55:29.615Z,8.77
2018-12-06T12:56:36.655Z,8.70
2018-12-06T12:57:43.663Z,8.73
2018-12-06T12:58:51.406Z,8.79
2018-12-06T12:59:58.067Z,8.83
2018-12-06T13:01:04.926Z,8.92
2018-12-06T13:02:12.870Z,8.91
2018-12-06T13:03:19.636Z,8.98
2018-12-06T13:04:25.830Z,8.91
2018-12-06T13:05:32.143Z,8.88
2018-12-06T13:06:39.218Z,8.82
2018-12-06T13:07:48.281Z,8.77
2018-12-06T13:08:53.957Z,8.68
2018-12-06T13:10:00.538Z,8.66
2018-12-06T13:11:07.989Z,8.74
2018-12-06T13:12:13.944Z,8.86
2018-12-06T13:13:19.547Z,8.78
2018-12-06T13:14:25.152Z,8.89
2018-12-06T13:15:31.864Z,8.88
2018-12-06T13:16:38.927Z,8.86
2018-12-06T13:17:44.752Z,8.86
2018-12-06T13:18:50.501Z,8.92
2018-12-06T13:19:57.805Z,8.93
2018-12-06T13:21:05.456Z,8.94
2018-12-06T13:22:10.646Z,9.09
2018-12-06T13:23:17.437Z,8.94
2018-12-06T13:24:24.103Z,8.87
2018-12-06T13:25:30.640Z,8.95
2018-12-06T13:26:37.223Z,8.95
2018-12-06T13:27:43.360Z,8.91
2018-12-06T13:28:49.831Z,8.98
2018-12-06T13:29:56.939Z,8.95
2018-12-06T13:31:03.592Z,8.98
2018-12-06T13:32:08.989Z,9.05
2018-12-06T13:33:14.703Z,9.11
2018-12-06T13:34:22.085Z,9.00
2018-12-06T13:35:31.060Z,8.86
2018-12-06T13:36:37.508Z,8.96
2018-12-06T13:37:42.924Z,9.11
2018-12-06T13:38:49.736Z,8.98
2018-12-06T13:39:56.239Z,9.02
2018-12-06T13:41:02.020Z,8.86
2018-12-06T13:42:07.647Z,8.77
2018-12-06T13:43:12.909Z,8.71
2018-12-06T13:44:18.209Z,8.83
2018-12-06T13:45:23.816Z,8.75
2018-12-06T13:46:29.589Z,8.70
2018-12-06T13:47:35.377Z,8.65
2018-12-06T13:48:40.997Z,8.67
2018-12-06T13:49:46.601Z,8.79
2018-12-06T13:50:52.898Z,8.90
2018-12-06T13:52:00.364Z,8.80
2018-12-06T13:53:07.926Z,8.84
2018-12-06T13:54:14.847Z,8.85
2018-12-06T13:55:20.833Z,8.95
2018-12-06T13:56:28.422Z,9.11
2018-12-06T13:57:34.914Z,9.09
2018-12-06T13:58:43.049Z,9.03
2018-12-06T13:59:50.052Z,9.04
2018-12-06T14:00:56.189Z,9.06
2018-12-06T14:02:02.485Z,9.11
2018-12-06T14:03:09.206Z,9.04
2018-12-06T14:04:15.838Z,8.94
2018-12-06T14:05:21.761Z,8.98
2018-12-06T14:06:27.760Z,8.90
2018-12-06T14:07:34.771Z,8.82
2018-12-06T14:08:42.373Z,8.84
2018-12-06T14:09:49.171Z,8.89
2018-12-06T14:10:55.724Z,8.92
2018-12-06T14:12:02.639Z,8.83
2018-12-06T14:13:09.173Z,8.82
2018-12-06T14:14:15.018Z,8.90
2018-12-06T14:15:21.829Z,9.08
2018-12-06T14:16:28.934Z,9.10
2018-12-06T14:17:35.195Z,9.04
2018-12-06T14:18:43.525Z,9.04
2018-12-06T14:19:49.786Z,9.13
2018-12-06T14:20:57.555Z,9.14
2018-12-06T14:22:04.056Z,9.11
2018-12-06T14:23:09.933Z,9.16
2018-12-06T14:24:16.694Z,9.13
2018-12-06T14:25:22.614Z,9.09
2018-12-06T14:26:28.929Z,9.14
2018-12-06T14:27:35.615Z,9.23
2018-12-06T14:28:41.440Z,9.29
2018-12-06T14:29:48.112Z,9.13
2018-12-06T14:30:54.323Z,8.96
2018-12-06T14:32:00.585Z,8.97
2018-12-06T14:33:07.463Z,8.93
2018-12-06T14:34:13.614Z,9.03
2018-12-06T14:35:20.448Z,9.18
2018-12-06T14:36:30.100Z,9.19
2018-12-06T14:37:36.753Z,9.19
2018-12-06T14:38:43.427Z,9.18
2018-12-06T14:39:49.567Z,9.24
2018-12-06T14:40:56.093Z,9.12